sensor_id;sensor_type;location;lat;lon;timestamp;P1;durP1;ratioP1;P2;durP2;ratioP2
76566;SDS011;65428;53.194;6.132;2023-06-24T00:02:08;13.60;;;12.30;;
76566;SDS011;65428;53.194;6.132;2023-06-24T00:04:34;16.67;;;14.98;;
76566;SDS011;65428;53.194;6.132;2023-06-24T00:07:00;15.25;;;13.85;;
76566;SDS011;65428;53.194;6.132;2023-06-24T00:09:26;12.97;;;11.70;;
76566;SDS011;65428;53.194;6.132;2023-06-24T00:12:13;12.15;;;11.05;;
76566;SDS011;65428;53.194;6.132;2023-06-24T00:14:45;17.43;;;15.77;;
76566;SDS011;65428;53.194;6.132;2023-06-24T00:17:11;14.15;;;12.85;;
76566;SDS011;65428;53.194;6.132;2023-06-24T00:19:37;14.82;;;13.52;;
76566;SDS011;65428;53.194;6.132;2023-06-24T00:22:03;15.70;;;14.20;;
76566;SDS011;65428;53.194;6.132;2023-06-24T00:24:31;14.85;;;13.45;;
76566;SDS011;65428;53.194;6.132;2023-06-24T00:26:57;15.52;;;14.00;;
76566;SDS011;65428;53.194;6.132;2023-06-24T00:29:22;16.30;;;14.70;;
76566;SDS011;65428;53.194;6.132;2023-06-24T00:31:48;15.30;;;13.82;;
76566;SDS011;65428;53.194;6.132;2023-06-24T00:34:14;16.13;;;14.52;;
76566;SDS011;65428;53.194;6.132;2023-06-24T00:36:40;15.00;;;13.60;;
76566;SDS011;65428;53.194;6.132;2023-06-24T00:39:05;14.25;;;12.85;;
76566;SDS011;65428;53.194;6.132;2023-06-24T00:41:32;15.43;;;13.98;;
76566;SDS011;65428;53.194;6.132;2023-06-24T00:43:59;15.55;;;13.98;;
76566;SDS011;65428;53.194;6.132;2023-06-24T00:46:26;15.03;;;13.63;;
76566;SDS011;65428;53.194;6.132;2023-06-24T00:48:54;14.32;;;13.10;;
76566;SDS011;65428;53.194;6.132;2023-06-24T00:51:20;14.50;;;13.20;;
76566;SDS011;65428;53.194;6.132;2023-06-24T00:53:51;13.88;;;12.48;;
76566;SDS011;65428;53.194;6.132;2023-06-24T00:56:17;15.00;;;13.70;;
76566;SDS011;65428;53.194;6.132;2023-06-24T00:58:46;17.35;;;15.75;;
76566;SDS011;65428;53.194;6.132;2023-06-24T01:01:12;14.98;;;13.57;;
76566;SDS011;65428;53.194;6.132;2023-06-24T01:03:38;16.63;;;15.02;;
76566;SDS011;65428;53.194;6.132;2023-06-24T01:06:04;15.82;;;14.40;;
76566;SDS011;65428;53.194;6.132;2023-06-24T01:08:30;17.37;;;15.77;;
76566;SDS011;65428;53.194;6.132;2023-06-24T01:10:56;18.60;;;16.83;;
76566;SDS011;65428;53.194;6.132;2023-06-24T01:13:22;20.73;;;18.70;;
76566;SDS011;65428;53.194;6.132;2023-06-24T01:15:47;18.73;;;17.00;;
76566;SDS011;65428;53.194;6.132;2023-06-24T01:18:20;17.50;;;15.67;;
76566;SDS011;65428;53.194;6.132;2023-06-24T01:29:28;18.37;;;16.60;;
76566;SDS011;65428;53.194;6.132;2023-06-24T01:32:05;20.13;;;18.05;;
76566;SDS011;65428;53.194;6.132;2023-06-24T01:37:32;19.88;;;17.95;;
76566;SDS011;65428;53.194;6.132;2023-06-24T01:42:44;21.98;;;19.80;;
76566;SDS011;65428;53.194;6.132;2023-06-24T01:45:16;20.30;;;18.40;;
76566;SDS011;65428;53.194;6.132;2023-06-24T01:47:47;19.73;;;17.80;;
76566;SDS011;65428;53.194;6.132;2023-06-24T01:50:19;19.90;;;17.87;;
76566;SDS011;65428;53.194;6.132;2023-06-24T01:52:47;19.97;;;17.97;;
76566;SDS011;65428;53.194;6.132;2023-06-24T01:55:18;20.48;;;18.40;;
76566;SDS011;65428;53.194;6.132;2023-06-24T01:57:45;21.25;;;18.85;;
76566;SDS011;65428;53.194;6.132;2023-06-24T02:00:13;21.25;;;19.13;;
76566;SDS011;65428;53.194;6.132;2023-06-24T02:02:40;23.27;;;20.83;;
76566;SDS011;65428;53.194;6.132;2023-06-24T02:05:07;20.33;;;18.30;;
76566;SDS011;65428;53.194;6.132;2023-06-24T02:07:34;20.27;;;18.15;;
76566;SDS011;65428;53.194;6.132;2023-06-24T02:10:01;22.63;;;20.30;;
76566;SDS011;65428;53.194;6.132;2023-06-24T02:12:28;20.97;;;18.97;;
76566;SDS011;65428;53.194;6.132;2023-06-24T02:14:55;21.95;;;19.58;;
76566;SDS011;65428;53.194;6.132;2023-06-24T02:17:23;22.48;;;20.20;;
76566;SDS011;65428;53.194;6.132;2023-06-24T02:19:50;21.75;;;19.58;;
76566;SDS011;65428;53.194;6.132;2023-06-24T02:22:17;22.88;;;20.48;;
76566;SDS011;65428;53.194;6.132;2023-06-24T02:24:44;24.58;;;22.20;;
76566;SDS011;65428;53.194;6.132;2023-06-24T02:27:12;22.95;;;20.60;;
76566;SDS011;65428;53.194;6.132;2023-06-24T02:29:38;22.02;;;19.65;;
76566;SDS011;65428;53.194;6.132;2023-06-24T02:32:06;21.88;;;19.67;;
76566;SDS011;65428;53.194;6.132;2023-06-24T02:34:32;21.23;;;18.92;;
76566;SDS011;65428;53.194;6.132;2023-06-24T02:36:58;21.93;;;19.63;;
76566;SDS011;65428;53.194;6.132;2023-06-24T02:39:24;21.05;;;18.85;;
76566;SDS011;65428;53.194;6.132;2023-06-24T02:41:49;21.00;;;18.90;;
76566;SDS011;65428;53.194;6.132;2023-06-24T02:44:15;19.83;;;17.87;;
76566;SDS011;65428;53.194;6.132;2023-06-24T02:46:42;21.20;;;19.10;;
76566;SDS011;65428;53.194;6.132;2023-06-24T02:49:10;20.97;;;18.73;;
76566;SDS011;65428;53.194;6.132;2023-06-24T02:51:38;21.05;;;18.85;;
76566;SDS011;65428;53.194;6.132;2023-06-24T02:54:04;21.20;;;18.93;;
76566;SDS011;65428;53.194;6.132;2023-06-24T02:56:31;20.08;;;18.17;;
76566;SDS011;65428;53.194;6.132;2023-06-24T02:58:57;19.20;;;17.27;;
76566;SDS011;65428;53.194;6.132;2023-06-24T03:01:23;22.38;;;20.00;;
76566;SDS011;65428;53.194;6.132;2023-06-24T03:03:54;22.02;;;19.83;;
76566;SDS011;65428;53.194;6.132;2023-06-24T03:06:20;22.17;;;19.88;;
76566;SDS011;65428;53.194;6.132;2023-06-24T03:08:47;22.20;;;19.98;;
76566;SDS011;65428;53.194;6.132;2023-06-24T03:11:14;20.90;;;17.73;;
76566;SDS011;65428;53.194;6.132;2023-06-24T03:13:40;21.30;;;19.20;;
76566;SDS011;65428;53.194;6.132;2023-06-24T03:16:07;22.85;;;20.45;;
76566;SDS011;65428;53.194;6.132;2023-06-24T03:18:37;20.90;;;18.70;;
76566;SDS011;65428;53.194;6.132;2023-06-24T03:21:07;23.03;;;20.57;;
76566;SDS011;65428;53.194;6.132;2023-06-24T03:23:33;24.88;;;21.88;;
76566;SDS011;65428;53.194;6.132;2023-06-24T03:26:00;22.50;;;20.10;;
76566;SDS011;65428;53.194;6.132;2023-06-24T03:28:25;20.92;;;18.75;;
76566;SDS011;65428;53.194;6.132;2023-06-24T03:30:51;21.40;;;19.27;;
76566;SDS011;65428;53.194;6.132;2023-06-24T03:33:17;22.67;;;20.30;;
76566;SDS011;65428;53.194;6.132;2023-06-24T03:35:43;22.15;;;19.60;;
76566;SDS011;65428;53.194;6.132;2023-06-24T03:38:09;21.37;;;18.90;;
76566;SDS011;65428;53.194;6.132;2023-06-24T03:40:35;21.30;;;19.10;;
76566;SDS011;65428;53.194;6.132;2023-06-24T03:43:00;20.98;;;18.88;;
76566;SDS011;65428;53.194;6.132;2023-06-24T03:45:26;20.97;;;18.77;;
76566;SDS011;65428;53.194;6.132;2023-06-24T03:47:52;23.02;;;20.58;;
76566;SDS011;65428;53.194;6.132;2023-06-24T03:50:17;21.43;;;18.97;;
76566;SDS011;65428;53.194;6.132;2023-06-24T03:52:43;21.10;;;18.90;;
76566;SDS011;65428;53.194;6.132;2023-06-24T03:55:10;20.45;;;18.27;;
76566;SDS011;65428;53.194;6.132;2023-06-24T03:57:36;21.35;;;18.73;;
76566;SDS011;65428;53.194;6.132;2023-06-24T04:00:02;20.67;;;18.63;;
76566;SDS011;65428;53.194;6.132;2023-06-24T04:02:41;20.63;;;18.45;;
76566;SDS011;65428;53.194;6.132;2023-06-24T04:05:07;21.85;;;19.58;;
76566;SDS011;65428;53.194;6.132;2023-06-24T04:07:33;21.30;;;19.10;;
76566;SDS011;65428;53.194;6.132;2023-06-24T04:10:01;22.23;;;19.83;;
76566;SDS011;65428;53.194;6.132;2023-06-24T04:12:28;21.15;;;18.95;;
76566;SDS011;65428;53.194;6.132;2023-06-24T04:14:54;20.77;;;18.47;;
76566;SDS011;65428;53.194;6.132;2023-06-24T04:17:20;21.53;;;19.10;;
76566;SDS011;65428;53.194;6.132;2023-06-24T04:19:46;20.83;;;18.73;;
76566;SDS011;65428;53.194;6.132;2023-06-24T04:22:12;21.17;;;18.98;;
76566;SDS011;65428;53.194;6.132;2023-06-24T04:24:37;19.70;;;17.70;;
76566;SDS011;65428;53.194;6.132;2023-06-24T04:27:03;19.58;;;17.48;;
76566;SDS011;65428;53.194;6.132;2023-06-24T04:29:30;21.27;;;19.05;;
76566;SDS011;65428;53.194;6.132;2023-06-24T04:31:56;20.10;;;18.07;;
76566;SDS011;65428;53.194;6.132;2023-06-24T04:34:21;19.60;;;17.50;;
76566;SDS011;65428;53.194;6.132;2023-06-24T04:36:47;19.30;;;17.30;;
76566;SDS011;65428;53.194;6.132;2023-06-24T04:39:13;19.10;;;17.20;;
76566;SDS011;65428;53.194;6.132;2023-06-24T04:41:38;19.83;;;17.90;;
76566;SDS011;65428;53.194;6.132;2023-06-24T04:44:04;19.52;;;17.67;;
76566;SDS011;65428;53.194;6.132;2023-06-24T04:46:30;20.13;;;18.00;;
76566;SDS011;65428;53.194;6.132;2023-06-24T04:48:57;18.48;;;16.67;;
76566;SDS011;65428;53.194;6.132;2023-06-24T04:51:23;19.08;;;17.00;;
76566;SDS011;65428;53.194;6.132;2023-06-24T04:53:49;17.53;;;15.93;;
76566;SDS011;65428;53.194;6.132;2023-06-24T04:56:14;17.93;;;16.13;;
76566;SDS011;65428;53.194;6.132;2023-06-24T04:58:40;16.83;;;15.02;;
76566;SDS011;65428;53.194;6.132;2023-06-24T05:01:06;17.17;;;15.37;;
76566;SDS011;65428;53.194;6.132;2023-06-24T05:03:31;17.63;;;15.93;;
76566;SDS011;65428;53.194;6.132;2023-06-24T05:05:57;16.80;;;15.20;;
76566;SDS011;65428;53.194;6.132;2023-06-24T05:08:23;16.53;;;14.83;;
76566;SDS011;65428;53.194;6.132;2023-06-24T05:10:49;16.77;;;15.05;;
76566;SDS011;65428;53.194;6.132;2023-06-24T05:13:15;16.55;;;14.95;;
76566;SDS011;65428;53.194;6.132;2023-06-24T05:15:41;16.70;;;15.10;;
76566;SDS011;65428;53.194;6.132;2023-06-24T05:18:06;16.40;;;14.82;;
76566;SDS011;65428;53.194;6.132;2023-06-24T05:20:32;15.70;;;14.10;;
76566;SDS011;65428;53.194;6.132;2023-06-24T05:22:58;16.23;;;14.63;;
76566;SDS011;65428;53.194;6.132;2023-06-24T05:25:23;15.77;;;14.38;;
76566;SDS011;65428;53.194;6.132;2023-06-24T05:27:49;15.80;;;14.30;;
76566;SDS011;65428;53.194;6.132;2023-06-24T05:30:15;15.65;;;14.05;;
76566;SDS011;65428;53.194;6.132;2023-06-24T05:32:40;15.13;;;13.80;;
76566;SDS011;65428;53.194;6.132;2023-06-24T05:35:06;14.88;;;13.43;;
76566;SDS011;65428;53.194;6.132;2023-06-24T05:37:32;14.80;;;13.50;;
76566;SDS011;65428;53.194;6.132;2023-06-24T05:39:58;14.93;;;13.43;;
76566;SDS011;65428;53.194;6.132;2023-06-24T05:42:26;14.30;;;12.93;;
76566;SDS011;65428;53.194;6.132;2023-06-24T05:44:52;14.75;;;13.25;;
76566;SDS011;65428;53.194;6.132;2023-06-24T05:47:18;14.90;;;13.45;;
76566;SDS011;65428;53.194;6.132;2023-06-24T05:49:44;14.70;;;13.20;;
76566;SDS011;65428;53.194;6.132;2023-06-24T05:52:11;14.10;;;12.80;;
76566;SDS011;65428;53.194;6.132;2023-06-24T05:54:37;13.75;;;12.40;;
76566;SDS011;65428;53.194;6.132;2023-06-24T05:57:02;13.93;;;12.60;;
76566;SDS011;65428;53.194;6.132;2023-06-24T05:59:31;13.88;;;12.48;;
76566;SDS011;65428;53.194;6.132;2023-06-24T06:01:58;13.07;;;11.82;;
76566;SDS011;65428;53.194;6.132;2023-06-24T06:04:24;12.63;;;11.47;;
76566;SDS011;65428;53.194;6.132;2023-06-24T06:06:49;12.20;;;11.00;;
76566;SDS011;65428;53.194;6.132;2023-06-24T06:09:15;12.37;;;11.23;;
76566;SDS011;65428;53.194;6.132;2023-06-24T06:11:41;11.00;;;10.02;;
76566;SDS011;65428;53.194;6.132;2023-06-24T06:14:06;11.63;;;10.53;;
76566;SDS011;65428;53.194;6.132;2023-06-24T06:16:32;11.43;;;10.43;;
76566;SDS011;65428;53.194;6.132;2023-06-24T06:18:58;12.17;;;11.07;;
76566;SDS011;65428;53.194;6.132;2023-06-24T06:21:24;11.23;;;10.23;;
76566;SDS011;65428;53.194;6.132;2023-06-24T06:23:49;11.80;;;10.60;;
76566;SDS011;65428;53.194;6.132;2023-06-24T06:26:15;11.20;;;10.10;;
76566;SDS011;65428;53.194;6.132;2023-06-24T06:28:41;10.73;;;9.50;;
76566;SDS011;65428;53.194;6.132;2023-06-24T06:31:06;11.30;;;10.00;;
76566;SDS011;65428;53.194;6.132;2023-06-24T06:33:32;11.47;;;10.37;;
76566;SDS011;65428;53.194;6.132;2023-06-24T06:35:57;12.45;;;11.27;;
76566;SDS011;65428;53.194;6.132;2023-06-24T06:38:24;11.77;;;10.55;;
76566;SDS011;65428;53.194;6.132;2023-06-24T06:40:49;12.57;;;11.38;;
76566;SDS011;65428;53.194;6.132;2023-06-24T06:43:15;12.35;;;11.20;;
76566;SDS011;65428;53.194;6.132;2023-06-24T06:45:41;12.90;;;11.13;;
76566;SDS011;65428;53.194;6.132;2023-06-24T06:48:06;12.15;;;11.00;;
76566;SDS011;65428;53.194;6.132;2023-06-24T06:50:33;12.73;;;11.40;;
76566;SDS011;65428;53.194;6.132;2023-06-24T06:53:00;13.37;;;12.00;;
76566;SDS011;65428;53.194;6.132;2023-06-24T06:55:26;13.95;;;11.98;;
76566;SDS011;65428;53.194;6.132;2023-06-24T06:57:52;13.52;;;12.23;;
76566;SDS011;65428;53.194;6.132;2023-06-24T07:00:18;12.65;;;11.43;;
76566;SDS011;65428;53.194;6.132;2023-06-24T07:02:44;14.27;;;12.80;;
76566;SDS011;65428;53.194;6.132;2023-06-24T07:05:09;13.20;;;11.90;;
76566;SDS011;65428;53.194;6.132;2023-06-24T07:07:39;14.02;;;12.65;;
76566;SDS011;65428;53.194;6.132;2023-06-24T07:10:05;12.75;;;11.55;;
76566;SDS011;65428;53.194;6.132;2023-06-24T07:12:31;13.38;;;12.07;;
76566;SDS011;65428;53.194;6.132;2023-06-24T07:14:57;13.25;;;12.00;;
76566;SDS011;65428;53.194;6.132;2023-06-24T07:17:22;12.30;;;11.13;;
76566;SDS011;65428;53.194;6.132;2023-06-24T07:19:48;12.30;;;11.20;;
76566;SDS011;65428;53.194;6.132;2023-06-24T07:22:14;12.20;;;11.10;;
76566;SDS011;65428;53.194;6.132;2023-06-24T07:24:40;12.30;;;11.18;;
76566;SDS011;65428;53.194;6.132;2023-06-24T07:27:06;12.87;;;11.67;;
76566;SDS011;65428;53.194;6.132;2023-06-24T07:29:32;13.30;;;11.98;;
76566;SDS011;65428;53.194;6.132;2023-06-24T07:31:58;13.43;;;12.05;;
76566;SDS011;65428;53.194;6.132;2023-06-24T07:34:24;12.37;;;10.63;;
76566;SDS011;65428;53.194;6.132;2023-06-24T07:36:50;12.90;;;11.70;;
76566;SDS011;65428;53.194;6.132;2023-06-24T07:39:16;12.73;;;11.53;;
76566;SDS011;65428;53.194;6.132;2023-06-24T07:41:42;13.23;;;11.82;;
76566;SDS011;65428;53.194;6.132;2023-06-24T07:44:08;13.48;;;12.20;;
76566;SDS011;65428;53.194;6.132;2023-06-24T07:46:33;13.60;;;12.20;;
76566;SDS011;65428;53.194;6.132;2023-06-24T07:48:59;11.85;;;10.70;;
76566;SDS011;65428;53.194;6.132;2023-06-24T07:51:25;13.63;;;12.23;;
76566;SDS011;65428;53.194;6.132;2023-06-24T07:53:52;12.90;;;11.70;;
76566;SDS011;65428;53.194;6.132;2023-06-24T07:56:17;13.52;;;12.32;;
76566;SDS011;65428;53.194;6.132;2023-06-24T07:58:43;13.20;;;11.90;;
76566;SDS011;65428;53.194;6.132;2023-06-24T08:01:09;11.80;;;10.60;;
76566;SDS011;65428;53.194;6.132;2023-06-24T08:03:34;12.73;;;11.37;;
76566;SDS011;65428;53.194;6.132;2023-06-24T08:06:02;12.85;;;11.65;;
76566;SDS011;65428;53.194;6.132;2023-06-24T08:08:28;13.52;;;12.23;;
76566;SDS011;65428;53.194;6.132;2023-06-24T08:10:54;12.80;;;11.50;;
76566;SDS011;65428;53.194;6.132;2023-06-24T08:13:20;13.77;;;12.13;;
76566;SDS011;65428;53.194;6.132;2023-06-24T08:15:46;12.85;;;11.55;;
76566;SDS011;65428;53.194;6.132;2023-06-24T08:18:12;12.37;;;11.13;;
76566;SDS011;65428;53.194;6.132;2023-06-24T08:20:38;12.45;;;10.02;;
76566;SDS011;65428;53.194;6.132;2023-06-24T08:23:03;11.70;;;10.60;;
76566;SDS011;65428;53.194;6.132;2023-06-24T08:25:29;9.90;;;8.90;;
76566;SDS011;65428;53.194;6.132;2023-06-24T08:27:55;10.40;;;9.30;;
76566;SDS011;65428;53.194;6.132;2023-06-24T08:30:21;11.07;;;10.00;;
76566;SDS011;65428;53.194;6.132;2023-06-24T08:32:47;10.70;;;9.60;;
76566;SDS011;65428;53.194;6.132;2023-06-24T08:35:12;10.88;;;9.77;;
76566;SDS011;65428;53.194;6.132;2023-06-24T08:37:39;10.83;;;9.73;;
76566;SDS011;65428;53.194;6.132;2023-06-24T08:40:05;11.60;;;10.40;;
76566;SDS011;65428;53.194;6.132;2023-06-24T08:42:31;9.50;;;8.60;;
76566;SDS011;65428;53.194;6.132;2023-06-24T08:44:57;9.23;;;8.35;;
76566;SDS011;65428;53.194;6.132;2023-06-24T08:47:26;10.60;;;9.60;;
76566;SDS011;65428;53.194;6.132;2023-06-24T08:49:55;10.75;;;9.65;;
76566;SDS011;65428;53.194;6.132;2023-06-24T08:52:30;9.63;;;8.63;;
76566;SDS011;65428;53.194;6.132;2023-06-24T08:55:00;10.98;;;9.88;;
76566;SDS011;65428;53.194;6.132;2023-06-24T08:57:26;11.68;;;10.48;;
76566;SDS011;65428;53.194;6.132;2023-06-24T08:59:52;10.55;;;9.55;;
76566;SDS011;65428;53.194;6.132;2023-06-24T09:02:18;10.30;;;9.20;;
76566;SDS011;65428;53.194;6.132;2023-06-24T09:04:44;11.00;;;9.15;;
76566;SDS011;65428;53.194;6.132;2023-06-24T09:07:10;9.73;;;8.73;;
76566;SDS011;65428;53.194;6.132;2023-06-24T09:09:43;10.52;;;9.38;;
76566;SDS011;65428;53.194;6.132;2023-06-24T09:12:10;10.23;;;9.20;;
76566;SDS011;65428;53.194;6.132;2023-06-24T09:14:37;10.52;;;9.40;;
76566;SDS011;65428;53.194;6.132;2023-06-24T09:17:03;10.27;;;9.27;;
76566;SDS011;65428;53.194;6.132;2023-06-24T09:19:29;10.57;;;9.48;;
76566;SDS011;65428;53.194;6.132;2023-06-24T09:21:55;9.82;;;8.93;;
76566;SDS011;65428;53.194;6.132;2023-06-24T09:24:32;10.48;;;9.48;;
76566;SDS011;65428;53.194;6.132;2023-06-24T09:26:59;9.70;;;8.70;;
76566;SDS011;65428;53.194;6.132;2023-06-24T09:29:25;9.53;;;8.63;;
76566;SDS011;65428;53.194;6.132;2023-06-24T09:31:54;10.67;;;8.53;;
76566;SDS011;65428;53.194;6.132;2023-06-24T09:34:24;9.80;;;8.90;;
76566;SDS011;65428;53.194;6.132;2023-06-24T09:36:51;9.02;;;8.13;;
76566;SDS011;65428;53.194;6.132;2023-06-24T09:39:18;9.70;;;8.20;;
76566;SDS011;65428;53.194;6.132;2023-06-24T09:41:57;9.60;;;8.60;;
76566;SDS011;65428;53.194;6.132;2023-06-24T09:44:26;8.40;;;7.60;;
76566;SDS011;65428;53.194;6.132;2023-06-24T09:46:53;9.63;;;8.63;;
76566;SDS011;65428;53.194;6.132;2023-06-24T09:49:21;9.45;;;8.55;;
76566;SDS011;65428;53.194;6.132;2023-06-24T09:51:47;8.73;;;7.72;;
76566;SDS011;65428;53.194;6.132;2023-06-24T09:54:20;8.25;;;7.45;;
76566;SDS011;65428;53.194;6.132;2023-06-24T09:56:49;8.38;;;7.45;;
76566;SDS011;65428;53.194;6.132;2023-06-24T09:59:15;8.77;;;7.10;;
76566;SDS011;65428;53.194;6.132;2023-06-24T10:01:45;9.00;;;7.68;;
76566;SDS011;65428;53.194;6.132;2023-06-24T10:04:15;8.30;;;7.03;;
76566;SDS011;65428;53.194;6.132;2023-06-24T10:06:45;7.45;;;6.68;;
76566;SDS011;65428;53.194;6.132;2023-06-24T10:09:11;5.93;;;4.13;;
76566;SDS011;65428;53.194;6.132;2023-06-24T10:11:41;4.68;;;4.22;;
76566;SDS011;65428;53.194;6.132;2023-06-24T10:14:10;5.97;;;4.10;;
76566;SDS011;65428;53.194;6.132;2023-06-24T10:16:36;4.38;;;3.50;;
76566;SDS011;65428;53.194;6.132;2023-06-24T10:19:02;4.10;;;3.72;;
76566;SDS011;65428;53.194;6.132;2023-06-24T10:21:49;4.95;;;3.42;;
76566;SDS011;65428;53.194;6.132;2023-06-24T10:24:29;4.93;;;3.72;;
76566;SDS011;65428;53.194;6.132;2023-06-24T10:27:07;4.53;;;3.55;;
76566;SDS011;65428;53.194;6.132;2023-06-24T10:29:58;5.70;;;3.55;;
76566;SDS011;65428;53.194;6.132;2023-06-24T10:32:38;4.53;;;3.35;;
76566;SDS011;65428;53.194;6.132;2023-06-24T10:35:20;5.40;;;3.92;;
76566;SDS011;65428;53.194;6.132;2023-06-24T10:37:54;5.28;;;4.10;;
76566;SDS011;65428;53.194;6.132;2023-06-24T10:45:49;5.15;;;3.42;;
76566;SDS011;65428;53.194;6.132;2023-06-24T10:48:15;5.35;;;3.50;;
76566;SDS011;65428;53.194;6.132;2023-06-24T10:50:44;4.07;;;3.67;;
76566;SDS011;65428;53.194;6.132;2023-06-24T10:53:10;4.70;;;3.60;;
76566;SDS011;65428;53.194;6.132;2023-06-24T10:55:38;4.78;;;3.53;;
76566;SDS011;65428;53.194;6.132;2023-06-24T10:58:10;6.13;;;4.82;;
76566;SDS011;65428;53.194;6.132;2023-06-24T11:00:41;6.60;;;4.20;;
76566;SDS011;65428;53.194;6.132;2023-06-24T11:03:17;5.13;;;3.90;;
76566;SDS011;65428;53.194;6.132;2023-06-24T11:05:45;4.33;;;3.30;;
76566;SDS011;65428;53.194;6.132;2023-06-24T11:08:11;3.92;;;2.90;;
76566;SDS011;65428;53.194;6.132;2023-06-24T11:10:44;3.90;;;2.80;;
76566;SDS011;65428;53.194;6.132;2023-06-24T11:13:11;4.45;;;2.92;;
76566;SDS011;65428;53.194;6.132;2023-06-24T11:15:37;4.60;;;2.95;;
76566;SDS011;65428;53.194;6.132;2023-06-24T11:18:05;5.20;;;3.22;;
76566;SDS011;65428;53.194;6.132;2023-06-24T11:20:35;4.55;;;3.38;;
76566;SDS011;65428;53.194;6.132;2023-06-24T11:23:02;4.80;;;3.70;;
76566;SDS011;65428;53.194;6.132;2023-06-24T11:25:38;5.40;;;3.65;;
76566;SDS011;65428;53.194;6.132;2023-06-24T11:28:17;5.80;;;3.58;;
76566;SDS011;65428;53.194;6.132;2023-06-24T11:30:46;4.47;;;3.85;;
76566;SDS011;65428;53.194;6.132;2023-06-24T11:33:12;4.85;;;4.32;;
76566;SDS011;65428;53.194;6.132;2023-06-24T11:35:38;5.85;;;3.60;;
76566;SDS011;65428;53.194;6.132;2023-06-24T11:38:03;5.00;;;3.97;;
76566;SDS011;65428;53.194;6.132;2023-06-24T11:40:30;6.13;;;3.60;;
76566;SDS011;65428;53.194;6.132;2023-06-24T11:42:59;3.88;;;3.40;;
76566;SDS011;65428;53.194;6.132;2023-06-24T11:45:28;4.13;;;3.20;;
76566;SDS011;65428;53.194;6.132;2023-06-24T11:47:54;4.63;;;3.70;;
76566;SDS011;65428;53.194;6.132;2023-06-24T11:50:29;5.05;;;2.92;;
76566;SDS011;65428;53.194;6.132;2023-06-24T11:52:55;3.90;;;2.70;;
76566;SDS011;65428;53.194;6.132;2023-06-24T11:55:22;3.87;;;3.00;;
76566;SDS011;65428;53.194;6.132;2023-06-24T11:57:49;3.40;;;2.30;;
76566;SDS011;65428;53.194;6.132;2023-06-24T12:00:19;4.13;;;2.45;;
76566;SDS011;65428;53.194;6.132;2023-06-24T12:02:48;4.63;;;3.30;;
76566;SDS011;65428;53.194;6.132;2023-06-24T12:05:23;4.50;;;3.30;;
76566;SDS011;65428;53.194;6.132;2023-06-24T12:07:55;3.83;;;2.58;;
76566;SDS011;65428;53.194;6.132;2023-06-24T12:10:25;3.47;;;2.38;;
76566;SDS011;65428;53.194;6.132;2023-06-24T12:13:00;3.15;;;2.47;;
76566;SDS011;65428;53.194;6.132;2023-06-24T12:15:31;3.53;;;2.00;;
76566;SDS011;65428;53.194;6.132;2023-06-24T12:17:57;3.20;;;1.92;;
76566;SDS011;65428;53.194;6.132;2023-06-24T12:20:26;2.83;;;1.67;;
76566;SDS011;65428;53.194;6.132;2023-06-24T12:22:52;2.72;;;1.90;;
76566;SDS011;65428;53.194;6.132;2023-06-24T12:25:18;3.37;;;1.80;;
76566;SDS011;65428;53.194;6.132;2023-06-24T12:28:02;3.75;;;1.88;;
76566;SDS011;65428;53.194;6.132;2023-06-24T12:30:28;5.10;;;2.00;;
76566;SDS011;65428;53.194;6.132;2023-06-24T12:32:56;3.13;;;1.88;;
76566;SDS011;65428;53.194;6.132;2023-06-24T12:35:22;3.40;;;1.70;;
76566;SDS011;65428;53.194;6.132;2023-06-24T12:37:51;2.60;;;1.63;;
76566;SDS011;65428;53.194;6.132;2023-06-24T12:40:17;4.33;;;1.53;;
76566;SDS011;65428;53.194;6.132;2023-06-24T12:42:43;3.35;;;1.90;;
76566;SDS011;65428;53.194;6.132;2023-06-24T12:45:09;2.53;;;1.70;;
76566;SDS011;65428;53.194;6.132;2023-06-24T12:47:35;3.67;;;1.95;;
76566;SDS011;65428;53.194;6.132;2023-06-24T12:50:04;3.20;;;1.90;;
76566;SDS011;65428;53.194;6.132;2023-06-24T12:52:33;2.42;;;1.70;;
76566;SDS011;65428;53.194;6.132;2023-06-24T12:54:59;2.90;;;1.80;;
76566;SDS011;65428;53.194;6.132;2023-06-24T12:57:25;2.67;;;1.60;;
76566;SDS011;65428;53.194;6.132;2023-06-24T12:59:50;3.23;;;1.40;;
76566;SDS011;65428;53.194;6.132;2023-06-24T13:02:16;2.55;;;1.60;;
76566;SDS011;65428;53.194;6.132;2023-06-24T13:04:42;2.70;;;1.58;;
76566;SDS011;65428;53.194;6.132;2023-06-24T13:07:07;2.30;;;1.30;;
76566;SDS011;65428;53.194;6.132;2023-06-24T13:09:34;2.42;;;1.30;;
76566;SDS011;65428;53.194;6.132;2023-06-24T13:12:00;4.20;;;1.70;;
76566;SDS011;65428;53.194;6.132;2023-06-24T13:14:26;3.10;;;1.33;;
76566;SDS011;65428;53.194;6.132;2023-06-24T13:16:53;3.08;;;1.35;;
76566;SDS011;65428;53.194;6.132;2023-06-24T13:19:19;2.30;;;1.30;;
76566;SDS011;65428;53.194;6.132;2023-06-24T13:21:45;2.25;;;1.30;;
76566;SDS011;65428;53.194;6.132;2023-06-24T13:24:10;2.77;;;1.30;;
76566;SDS011;65428;53.194;6.132;2023-06-24T13:26:37;2.33;;;1.17;;
76566;SDS011;65428;53.194;6.132;2023-06-24T13:29:03;2.65;;;1.40;;
76566;SDS011;65428;53.194;6.132;2023-06-24T13:31:29;1.87;;;1.00;;
76566;SDS011;65428;53.194;6.132;2023-06-24T13:33:54;1.90;;;0.80;;
76566;SDS011;65428;53.194;6.132;2023-06-24T13:36:33;2.10;;;1.30;;
76566;SDS011;65428;53.194;6.132;2023-06-24T13:39:00;2.15;;;1.17;;
76566;SDS011;65428;53.194;6.132;2023-06-24T13:41:30;2.88;;;1.10;;
76566;SDS011;65428;53.194;6.132;2023-06-24T13:44:01;2.30;;;1.10;;
76566;SDS011;65428;53.194;6.132;2023-06-24T13:46:28;1.75;;;1.02;;
76566;SDS011;65428;53.194;6.132;2023-06-24T13:48:54;2.67;;;1.15;;
76566;SDS011;65428;53.194;6.132;2023-06-24T13:51:21;3.08;;;1.45;;
76566;SDS011;65428;53.194;6.132;2023-06-24T13:53:48;2.20;;;1.50;;
76566;SDS011;65428;53.194;6.132;2023-06-24T13:56:16;2.30;;;1.27;;
76566;SDS011;65428;53.194;6.132;2023-06-24T13:58:44;2.30;;;1.40;;
76566;SDS011;65428;53.194;6.132;2023-06-24T14:01:10;2.63;;;1.60;;
76566;SDS011;65428;53.194;6.132;2023-06-24T14:03:37;2.50;;;1.50;;
76566;SDS011;65428;53.194;6.132;2023-06-24T14:06:03;2.00;;;1.80;;
76566;SDS011;65428;53.194;6.132;2023-06-24T14:08:29;2.45;;;1.75;;
76566;SDS011;65428;53.194;6.132;2023-06-24T14:10:56;3.38;;;1.85;;
76566;SDS011;65428;53.194;6.132;2023-06-24T14:13:22;2.60;;;1.88;;
76566;SDS011;65428;53.194;6.132;2023-06-24T14:15:48;3.27;;;1.80;;
76566;SDS011;65428;53.194;6.132;2023-06-24T14:18:14;2.75;;;1.60;;
76566;SDS011;65428;53.194;6.132;2023-06-24T14:20:39;2.27;;;1.80;;
76566;SDS011;65428;53.194;6.132;2023-06-24T14:23:06;2.50;;;1.60;;
76566;SDS011;65428;53.194;6.132;2023-06-24T14:25:32;2.65;;;1.70;;
76566;SDS011;65428;53.194;6.132;2023-06-24T14:27:57;2.25;;;1.50;;
76566;SDS011;65428;53.194;6.132;2023-06-24T14:30:23;4.70;;;2.17;;
76566;SDS011;65428;53.194;6.132;2023-06-24T14:32:49;3.73;;;1.67;;
76566;SDS011;65428;53.194;6.132;2023-06-24T14:35:15;2.97;;;1.70;;
76566;SDS011;65428;53.194;6.132;2023-06-24T14:37:40;3.22;;;1.90;;
76566;SDS011;65428;53.194;6.132;2023-06-24T14:40:07;2.80;;;1.83;;
76566;SDS011;65428;53.194;6.132;2023-06-24T14:42:33;2.88;;;1.83;;
76566;SDS011;65428;53.194;6.132;2023-06-24T14:45:00;2.20;;;1.80;;
76566;SDS011;65428;53.194;6.132;2023-06-24T14:47:26;3.75;;;2.15;;
76566;SDS011;65428;53.194;6.132;2023-06-24T14:49:52;4.28;;;2.55;;
76566;SDS011;65428;53.194;6.132;2023-06-24T14:52:18;5.13;;;2.22;;